Airfield :
LOGIN :

Register | Disclaimer

   EN    FR    IT 

 










Legend :    VFR   Marginal VFR   IFR   Intensive IFR   Very Intensive IFR
Visi :
Ceiling :
>= 8 km
>= 3000ft
5 to 8 km
1000 to 3000 ft
1500m to 5 km
500 to 1000 ft
800 to 1500m
200 to 500 ft
< 800m
< 200 ft
Symbols :   Thunderstorms  Fog  Heavy snow  Heavy precipitations  Wind > 20 kt
SIGMETs :     Misc.  Thunderstorms  Icing  Turbulence  Mountain Waves  Volcanic Ashes







- Airport Elevation : 274 ft
- IATA code : PUY


LDPL - Pula

CURRENT METAR :
  • 202330Z 00000KT 9999 SCT026 BKN031 BKN041 08/07 Q1008

EXPIRED METARs :
  • 202300Z 00000KT 9999 SCT024 BKN031 BKN041 08/07 Q1008
  • 202230Z 00000KT 9999 -RA SCT024 BKN031 BKN041 08/07 Q1008
  • 202200Z 00000KT 9999 SCT026 BKN031 BKN041 08/06 Q1008 NOSIG
  • 202130Z VRB02KT 9999 FEW026 SCT036 BKN050 08/06 Q1008 NOSIG
  • 202100Z 28003KT 9999 FEW026 SCT050 07/05 Q1007 NOSIG

TAF TAF LDPL
Valid from the 21 at 00:00 until the 22 at 00:00 UTC


202325Z 2100/2200 06006KT 9999 SCT015 BKN030 TX11/2113Z TN06/2104Z
PROB30
TEMPO 2112/2114 29008KT 3000 BR BKN006
No reported NOTAMs for that airfield.



MET'MAP, your aeronautical weather chart ! - Copyright ORBIFLY December 2007 - Disclaimer

ORBIFLY MET'MAP TEAM :

Programming & Development : Alexandra Zaïnal
Concept & Development : Baudouin d'Aumeries
Co-Development & Prog : Marc-Olivier Méhu
Technical & hardware support : Manuel Goepfert

Contact : metmap@orbifly.com




SOURCES & CREDITS :

   NOAA